Time;durP1;ratioP1;P1;durP2;ratioP2;P2;SDS_P1;SDS_P2;PMS_P1;PMS_P2;Temp;Humidity;BMP_temperature;BMP_pressure;BME280_temperature;BME280_humidity;BME280_pressure;Samples;Min_cycle;Max_cycle;Signal;HPM_P1;HPM_P2
2022/10/09 00:00:45;;;;;;;9.23;5.07;;;;;;;11.21;71.23;94322.94;5043356;28;20089;-78
2022/10/09 00:03:13;;;;;;;12.73;4.88;;;;;;;11.20;71.21;94317.91;5045953;28;20258;-78
2022/10/09 00:05:38;;;;;;;9.80;4.82;;;;;;;11.16;71.18;94314.25;5045867;28;20035;-78
2022/10/09 00:08:04;;;;;;;9.40;4.93;;;;;;;11.13;70.97;94310.28;5045762;28;20096;-78
2022/10/09 00:10:30;;;;;;;7.88;4.45;;;;;;;11.07;71.46;94311.53;5045563;28;20079;-79
2022/10/09 00:12:55;;;;;;;6.50;4.45;;;;;;;11.04;71.49;94310.25;5045416;28;20307;-77
2022/10/09 00:15:22;;;;;;;8.82;5.60;;;;;;;11.00;71.53;94305.84;5045232;28;20036;-77
2022/10/09 00:17:47;;;;;;;10.70;5.40;;;;;;;10.97;71.66;94319.78;5045606;28;20223;-78
2022/10/09 00:20:13;;;;;;;9.73;5.13;;;;;;;10.93;71.90;94310.81;5045453;28;20029;-78
2022/10/09 00:22:39;;;;;;;8.25;4.45;;;;;;;10.91;72.11;94316.47;5045423;28;20254;-78
2022/10/09 00:25:05;;;;;;;12.32;5.32;;;;;;;10.90;72.01;94298.88;5045113;28;20315;-78
2022/10/09 00:27:30;;;;;;;8.70;4.82;;;;;;;10.87;71.89;94296.81;5045151;28;20025;-79
2022/10/09 00:29:56;;;;;;;11.50;4.78;;;;;;;10.84;72.25;94295.53;5045319;28;20025;-79
2022/10/09 00:32:21;;;;;;;8.02;5.35;;;;;;;10.80;72.04;94291.91;5044966;28;20030;-77
2022/10/09 00:34:47;;;;;;;7.88;4.75;;;;;;;10.80;72.36;94299.13;5045036;28;20030;-78
2022/10/09 00:37:12;;;;;;;7.28;4.43;;;;;;;10.77;72.47;94294.41;5027390;28;20029;-79
2022/10/09 00:39:37;;;;;;;8.07;4.30;;;;;;;10.73;72.39;94288.09;5045180;28;20084;-78
2022/10/09 00:42:03;;;;;;;15.93;5.38;;;;;;;10.68;72.74;94285.53;5044739;28;20211;-78
2022/10/09 00:44:50;;;;;;;10.90;4.85;;;;;;;10.68;72.60;94282.88;5044740;28;20052;-78
2022/10/09 00:47:41;;;;;;;9.40;4.90;;;;;;;10.65;72.44;94276.28;5044859;28;20028;-78
2022/10/09 00:50:19;;;;;;;8.65;4.90;;;;;;;10.62;72.70;94275.00;5044739;28;20040;-79
2022/10/09 00:52:47;;;;;;;8.48;4.43;;;;;;;10.62;72.84;94271.53;5044688;28;20184;-79
2022/10/09 00:55:13;;;;;;;10.73;4.68;;;;;;;10.58;72.77;94267.91;5044690;28;20329;-78
2022/10/09 00:57:40;;;;;;;7.35;4.32;;;;;;;10.56;72.84;94272.75;5045050;28;20201;-79
2022/10/09 01:00:09;;;;;;;11.80;5.40;;;;;;;10.53;73.11;94271.47;5045118;28;20029;-79
2022/10/09 01:02:35;;;;;;;9.52;5.38;;;;;;;10.50;73.24;94265.97;5044598;28;20259;-79
2022/10/09 01:05:01;;;;;;;9.35;4.93;;;;;;;10.46;73.52;94271.09;5044811;28;20092;-79
2022/10/09 01:07:45;;;;;;;9.85;5.70;;;;;;;10.42;73.59;94262.94;5044555;28;20358;-79
2022/10/09 01:10:22;;;;;;;10.45;5.43;;;;;;;10.45;73.51;94269.53;5045016;28;20188;-78
2022/10/09 01:13:05;;;;;;;8.68;5.47;;;;;;;10.44;73.74;94278.59;5043295;28;20025;-78
2022/10/09 01:15:36;;;;;;;11.02;5.85;;;;;;;10.40;73.81;94258.97;5044674;28;20250;-79
2022/10/09 01:18:04;;;;;;;15.32;5.45;;;;;;;10.42;73.86;94275.47;5044789;28;20196;-78
2022/10/09 01:20:59;;;;;;;10.20;6.13;;;;;;;10.40;73.76;94274.97;5044604;28;20052;-78
2022/10/09 01:23:51;;;;;;;10.70;5.80;;;;;;;10.38;73.87;94272.63;5044621;28;20052;-79
2022/10/09 01:26:54;;;;;;;12.38;6.70;;;;;;;10.36;73.85;94276.66;5044221;28;20049;-78
2022/10/09 01:29:23;;;;;;;10.75;5.25;;;;;;;10.32;74.08;94275.69;5044454;28;20234;-78
2022/10/09 01:31:51;;;;;;;8.75;5.07;;;;;;;10.34;74.06;94281.50;5043957;28;20231;-78
2022/10/09 01:34:18;;;;;;;10.32;5.57;;;;;;;10.37;74.03;94278.25;5044517;28;20033;-78
2022/10/09 01:36:45;;;;;;;11.18;4.70;;;;;;;10.37;74.07;94275.59;5044251;28;20029;-78
2022/10/09 01:39:17;;;;;;;10.50;4.90;;;;;;;10.39;74.14;94273.41;5044276;28;20076;-78
2022/10/09 01:41:43;;;;;;;7.93;4.63;;;;;;;10.39;74.40;94278.75;5044416;28;20040;-77
2022/10/09 01:44:32;;;;;;;10.80;4.75;;;;;;;10.34;74.40;94270.84;5044117;28;20043;-76
2022/10/09 01:46:58;;;;;;;8.25;4.45;;;;;;;10.31;74.35;94272.25;5033334;28;20037;-77
2022/10/09 01:49:54;;;;;;;8.05;4.45;;;;;;;10.28;74.60;94277.34;5043916;28;20040;-76
2022/10/09 01:52:37;;;;;;;14.90;5.40;;;;;;;10.29;74.35;94265.63;5043820;28;20212;-76
2022/10/09 01:55:20;;;;;;;9.25;4.88;;;;;;;10.30;74.35;94264.53;5043683;28;20044;-76
2022/10/09 01:57:55;;;;;;;13.25;5.07;;;;;;;10.29;74.21;94273.59;5043715;28;20028;-76
2022/10/09 02:00:21;;;;;;;13.13;5.40;;;;;;;10.25;74.32;94274.19;5043853;28;20048;-77
2022/10/09 02:02:48;;;;;;;11.93;5.70;;;;;;;10.23;74.58;94272.91;5043231;28;20379;-77
2022/10/09 02:05:22;;;;;;;9.43;5.03;;;;;;;10.22;74.62;94279.34;5043599;28;20049;-77
2022/10/09 02:07:48;;;;;;;8.18;4.80;;;;;;;10.20;74.87;94282.31;5043575;28;20017;-77
2022/10/09 02:10:16;;;;;;;11.77;4.82;;;;;;;10.21;75.16;94289.19;5043228;28;20071;-77
2022/10/09 02:12:48;;;;;;;9.07;5.25;;;;;;;10.22;74.89;94284.69;5043675;28;20051;-77
2022/10/09 02:15:14;;;;;;;;;;;;;;;10.21;74.97;94293.75;5043953;28;20029;-77
2022/10/09 02:17:45;;;;;;;10.65;4.50;;;;;;;10.18;74.99;94294.34;5043061;28;19912;-77
2022/10/09 02:20:34;;;;;;;11.23;4.87;;;;;;;10.17;75.11;94290.88;5043108;28;20017;-78
2022/10/09 02:23:03;;;;;;;10.35;4.88;;;;;;;10.15;75.06;94301.06;5042617;28;20085;-77
2022/10/09 02:25:28;;;;;;;7.95;5.00;;;;;;;10.15;75.12;94303.72;5042329;28;20240;-79
2022/10/09 02:27:54;;;;;;;9.27;4.57;;;;;;;10.11;75.28;94304.63;5042600;28;20055;-79
2022/10/09 02:30:23;;;;;;;11.45;5.15;;;;;;;10.15;75.23;94310.94;5042877;28;20028;-79
2022/10/09 02:32:52;;;;;;;9.88;5.50;;;;;;;10.13;75.16;94302.44;5042772;28;20030;-79
2022/10/09 02:35:18;;;;;;;8.63;5.07;;;;;;;10.13;75.29;94313.09;5042703;28;20227;-78
2022/10/09 02:37:43;;;;;;;10.75;5.53;;;;;;;10.16;75.14;94301.88;5025206;28;20025;-78
2022/10/09 02:40:09;;;;;;;8.27;5.00;;;;;;;10.16;75.34;94297.31;5042974;28;20024;-79
2022/10/09 02:42:35;;;;;;;14.88;4.95;;;;;;;10.16;75.40;94297.31;5042641;28;20055;-78
2022/10/09 02:45:00;;;;;;;9.77;5.13;;;;;;;10.09;75.46;94312.13;5042599;28;20300;-78
2022/10/09 02:47:25;;;;;;;9.75;5.70;;;;;;;10.08;75.42;94295.34;5042687;28;20304;-78
2022/10/09 02:49:51;;;;;;;11.82;6.25;;;;;;;10.10;75.63;94301.19;5042659;28;20013;-79
2022/10/09 02:52:16;;;;;;;8.88;6.22;;;;;;;10.11;75.43;94309.94;5042442;28;20029;-79
2022/10/09 02:54:42;;;;;;;12.13;6.18;;;;;;;10.07;75.62;94304.41;5042760;28;20017;-78
2022/10/09 02:57:07;;;;;;;9.85;5.65;;;;;;;10.05;75.96;94295.94;5042617;28;20220;-78
2022/10/09 02:59:33;;;;;;;12.23;6.05;;;;;;;10.02;75.82;94309.88;5042489;28;20041;-78
2022/10/09 03:01:58;;;;;;;8.13;5.45;;;;;;;10.06;75.96;94302.84;5042471;28;20049;-79
2022/10/09 03:04:24;;;;;;;12.82;6.57;;;;;;;10.03;75.92;94300.78;5042579;28;20021;-78
2022/10/09 03:06:49;;;;;;;12.55;6.38;;;;;;;10.04;75.99;94299.72;5042212;28;20350;-78
2022/10/09 03:09:15;;;;;;;15.45;6.38;;;;;;;10.00;75.91;94298.72;5042513;28;20230;-79
2022/10/09 03:11:40;;;;;;;17.52;6.53;;;;;;;10.01;75.88;94301.09;5042256;28;20268;-78
2022/10/09 03:14:06;;;;;;;11.68;5.90;;;;;;;10.05;75.82;94306.59;5042674;28;20273;-78
2022/10/09 03:16:31;;;;;;;11.32;6.32;;;;;;;10.04;76.00;94313.81;5042899;28;20067;-78
2022/10/09 03:18:57;;;;;;;15.05;6.30;;;;;;;10.02;76.00;94309.88;5042667;28;20022;-78
2022/10/09 03:21:25;;;;;;;12.88;6.85;;;;;;;10.01;76.42;94303.75;5042574;28;20021;-78
2022/10/09 03:23:52;;;;;;;14.40;7.38;;;;;;;10.06;76.11;94313.50;5042385;28;20013;-78
2022/10/09 03:26:20;;;;;;;12.32;7.00;;;;;;;10.07;76.01;94316.97;5042124;28;20032;-78
2022/10/09 03:28:48;;;;;;;13.35;7.10;;;;;;;10.07;75.87;94315.06;5042414;28;20215;-78
2022/10/09 03:31:15;;;;;;;17.20;7.80;;;;;;;10.09;75.81;94320.09;5042344;28;20108;-78
2022/10/09 03:33:40;;;;;;;15.50;7.65;;;;;;;10.03;75.85;94322.09;5042624;28;20021;-78
2022/10/09 03:36:06;;;;;;;14.00;7.32;;;;;;;10.02;76.09;94328.50;5044602;28;20339;-78
2022/10/09 03:38:32;;;;;;;18.38;6.68;;;;;;;10.02;76.09;94325.84;5046467;28;20110;-78
2022/10/09 03:40:59;;;;;;;14.02;7.32;;;;;;;9.97;76.21;94325.94;5046048;28;20242;-78
2022/10/09 03:43:24;;;;;;;17.52;8.35;;;;;;;9.99;76.26;94329.91;5046180;28;20349;-78
2022/10/09 03:45:50;;;;;;;13.05;8.00;;;;;;;9.97;76.07;94328.59;5046162;28;20036;-77
2022/10/09 03:48:16;;;;;;;12.38;6.85;;;;;;;9.98;75.95;94332.84;5046220;28;20086;-78
2022/10/09 03:50:41;;;;;;;12.48;7.35;;;;;;;10.00;75.88;94336.00;5046099;28;20044;-78
2022/10/09 03:53:09;;;;;;;10.95;6.35;;;;;;;10.00;75.69;94325.34;5045962;28;20067;-77
2022/10/09 03:55:34;;;;;;;13.80;6.82;;;;;;;9.99;75.64;94321.91;5046162;28;20025;-78
2022/10/09 03:58:01;;;;;;;15.10;6.85;;;;;;;9.98;75.37;94327.53;5046258;28;20088;-78
2022/10/09 04:00:26;;;;;;;17.08;7.10;;;;;;;9.96;75.37;94324.38;5045724;28;20247;-78
2022/10/09 04:02:52;;;;;;;13.60;6.38;;;;;;;9.93;75.23;94327.63;5045998;28;20048;-78
2022/10/09 04:05:17;;;;;;;13.98;6.47;;;;;;;9.92;75.30;94323.41;5046165;28;20093;-78
2022/10/09 04:07:43;;;;;;;10.90;6.10;;;;;;;9.89;75.65;94326.63;5045921;28;20029;-78
2022/10/09 04:10:09;;;;;;;13.05;6.57;;;;;;;9.86;75.71;94333.34;5045782;28;20025;-78
2022/10/09 04:12:34;;;;;;;12.00;6.65;;;;;;;9.82;75.70;94330.47;5045497;28;20036;-78
2022/10/09 04:15:00;;;;;;;14.18;6.55;;;;;;;9.79;75.70;94336.41;5045966;28;20033;-79
2022/10/09 04:17:25;;;;;;;11.82;6.20;;;;;;;9.77;75.85;94325.28;5045596;28;20219;-79
2022/10/09 04:19:51;;;;;;;13.30;6.07;;;;;;;9.73;75.99;94326.94;5045335;28;20084;-79
2022/10/09 04:22:16;;;;;;;11.95;5.68;;;;;;;9.73;75.80;94337.59;5045936;28;20020;-78
2022/10/09 04:24:42;;;;;;;12.50;6.68;;;;;;;9.71;75.84;94323.78;5045619;28;20035;-79
2022/10/09 04:27:07;;;;;;;15.05;4.80;;;;;;;9.67;76.08;94335.31;5045942;28;20303;-79
2022/10/09 04:29:33;;;;;;;15.77;6.13;;;;;;;9.61;75.99;94329.31;5045348;28;20227;-79
2022/10/09 04:31:59;;;;;;;14.50;5.80;;;;;;;9.61;75.82;94343.41;5045456;28;20088;-79
2022/10/09 04:34:24;;;;;;;14.68;7.38;;;;;;;9.59;76.09;94342.91;5045609;28;20028;-78
2022/10/09 04:36:49;;;;;;;15.05;6.68;;;;;;;9.61;75.88;94340.75;5045534;28;20018;-79
2022/10/09 04:39:15;;;;;;;16.90;7.63;;;;;;;9.58;76.08;94335.22;5045372;28;20044;-78
2022/10/09 04:41:40;;;;;;;16.45;7.30;;;;;;;9.57;75.90;94333.66;5045764;28;20013;-79
2022/10/09 04:44:06;;;;;;;14.10;7.35;;;;;;;9.57;76.04;94344.28;5045249;28;20018;-79
2022/10/09 04:46:31;;;;;;;19.50;7.13;;;;;;;9.52;75.97;94341.69;5044825;28;20068;-78
2022/10/09 04:48:57;;;;;;;14.30;7.38;;;;;;;9.55;76.16;94344.56;5045263;28;20018;-79
2022/10/09 04:51:22;;;;;;;13.32;7.20;;;;;;;9.54;76.08;94345.66;5045030;28;20022;-79
2022/10/09 04:53:48;;;;;;;10.98;6.47;;;;;;;9.54;76.15;94344.88;5044701;28;20029;-78
2022/10/09 04:56:16;;;;;;;9.38;4.90;;;;;;;9.57;75.97;94349.59;5044636;28;20319;-78
2022/10/09 04:58:43;;;;;;;14.57;6.07;;;;;;;9.57;76.06;94349.59;5044977;28;20026;-79
2022/10/09 05:01:20;;;;;;;12.98;6.93;;;;;;;9.59;75.82;94352.78;5044755;28;20033;-79
2022/10/09 05:03:46;;;;;;;15.02;6.55;;;;;;;9.58;75.84;94357.28;5044577;28;20130;-79
2022/10/09 05:06:13;;;;;;;12.57;6.10;;;;;;;9.58;75.68;94348.50;5044593;28;20025;-79
2022/10/09 05:08:38;;;;;;;13.60;7.20;;;;;;;9.56;75.98;94354.13;5044516;28;20037;-79
2022/10/09 05:11:07;;;;;;;12.27;5.82;;;;;;;9.57;76.09;94361.03;5044489;28;20017;-79
2022/10/09 05:13:35;;;;;;;19.90;7.43;;;;;;;9.58;76.54;94361.81;5044537;28;20079;-79
2022/10/09 05:16:02;;;;;;;11.55;6.35;;;;;;;9.58;76.66;94359.16;5044346;28;20068;-79
2022/10/09 05:18:28;;;;;;;11.60;6.88;;;;;;;9.59;76.58;94368.72;5044207;28;20311;-79
2022/10/09 05:20:53;;;;;;;10.98;6.35;;;;;;;9.61;76.64;94366.56;5044174;28;20047;-79
2022/10/09 05:23:19;;;;;;;14.95;6.93;;;;;;;9.64;76.77;94377.41;5044179;28;20023;-79
2022/10/09 05:25:55;;;;;;;12.35;6.70;;;;;;;9.70;76.60;94366.66;5044042;28;20090;-79
2022/10/09 05:28:21;;;;;;;15.18;6.40;;;;;;;9.73;76.76;94360.75;5044015;28;20026;-79
2022/10/09 05:30:47;;;;;;;14.40;7.05;;;;;;;9.77;76.88;94370.53;5043902;28;20096;-79
2022/10/09 05:33:12;;;;;;;12.43;6.65;;;;;;;9.82;77.10;94378.41;5044061;28;20422;-79
2022/10/09 05:35:38;;;;;;;9.85;6.70;;;;;;;9.83;77.12;94371.19;5044274;28;20323;-79
2022/10/09 05:38:03;;;;;;;11.65;7.25;;;;;;;9.84;77.35;94378.13;5043879;28;20326;-79
2022/10/09 05:40:28;;;;;;;18.08;9.00;;;;;;;9.93;77.12;94383.53;5043723;28;20039;-79
2022/10/09 05:42:54;;;;;;;14.13;8.68;;;;;;;10.01;76.90;94380.19;5043840;28;20017;-79
2022/10/09 05:45:19;;;;;;;31.60;7.93;;;;;;;10.07;76.71;94379.00;5026133;28;20022;-78
2022/10/09 05:47:45;;;;;;;23.65;7.47;;;;;;;10.11;76.52;94377.31;5043510;28;20028;-79
2022/10/09 05:50:10;;;;;;;20.35;10.77;;;;;;;10.13;76.34;94379.69;5043728;28;20071;-79
2022/10/09 05:52:38;;;;;;;22.05;9.57;;;;;;;10.18;76.21;94383.03;5043339;28;20049;-78
2022/10/09 05:55:05;;;;;;;15.88;8.48;;;;;;;10.21;76.59;94384.31;5043584;28;20025;-78
2022/10/09 05:57:30;;;;;;;17.42;8.93;;;;;;;10.29;76.49;94385.50;5043092;28;20029;-78
2022/10/09 05:59:56;;;;;;;22.08;10.20;;;;;;;10.32;76.50;94384.94;5043134;28;20019;-78
2022/10/09 06:02:21;;;;;;;18.08;9.63;;;;;;;10.39;76.56;94391.44;5043228;28;20099;-78
2022/10/09 06:04:46;;;;;;;16.88;9.73;;;;;;;10.40;76.74;94402.88;5043198;28;20021;-78
2022/10/09 06:07:12;;;;;;;14.27;9.00;;;;;;;10.54;76.46;94401.00;5043411;28;20021;-78
2022/10/09 06:09:37;;;;;;;19.92;9.13;;;;;;;10.63;76.38;94396.53;5043588;28;20341;-78
2022/10/09 06:12:03;;;;;;;21.02;9.15;;;;;;;10.76;76.13;94405.56;5043148;28;20025;-78
2022/10/09 06:14:28;;;;;;;16.38;9.07;;;;;;;10.87;75.85;94408.81;5043170;28;20088;-78
2022/10/09 06:16:54;;;;;;;34.00;10.57;;;;;;;10.93;76.01;94410.28;5043018;28;20022;-78
2022/10/09 06:19:19;;;;;;;37.72;11.32;;;;;;;10.95;76.32;94418.78;5042987;28;20079;-77
2022/10/09 06:21:46;;;;;;;27.10;11.20;;;;;;;11.00;76.38;94420.53;5025597;28;20268;-78
2022/10/09 06:24:22;;;;;;;17.45;10.65;;;;;;;11.05;76.06;94417.72;5043200;28;20219;-79
2022/10/09 06:26:48;;;;;;;17.80;9.48;;;;;;;11.14;76.39;94420.50;5042914;28;20227;-79
2022/10/09 06:29:13;;;;;;;20.80;10.85;;;;;;;11.12;76.24;94422.69;5043674;28;20021;-82
2022/10/09 06:31:39;;;;;;;26.85;10.35;;;;;;;11.20;75.73;94425.41;5042936;28;20247;-81
2022/10/09 06:34:04;;;;;;;22.85;11.75;;;;;;;11.28;76.39;94426.56;5043497;28;20282;-81
2022/10/09 06:36:32;;;;;;;17.80;10.15;;;;;;;11.26;76.56;94431.41;5043013;28;20025;-83
2022/10/09 06:38:59;;;;;;;19.88;9.30;;;;;;;11.34;76.32;94429.91;5043146;28;20032;-81
2022/10/09 06:41:26;;;;;;;17.65;10.27;;;;;;;11.37;75.75;94437.28;5043214;28;20044;-81
2022/10/09 06:43:58;;;;;;;19.60;10.10;;;;;;;11.44;75.35;94437.66;5043030;28;20201;-82
2022/10/09 06:46:27;;;;;;;16.97;10.43;;;;;;;11.45;75.12;94442.69;5042845;28;20315;-81
2022/10/09 06:48:53;;;;;;;17.17;10.15;;;;;;;11.45;75.25;94447.22;5042742;28;20235;-81
2022/10/09 06:51:21;;;;;;;14.48;9.43;;;;;;;11.47;75.30;94449.59;5042823;28;20303;-81
2022/10/09 06:53:49;;;;;;;15.70;10.30;;;;;;;11.54;75.29;94439.28;5042727;28;20088;-85
2022/10/09 06:56:16;;;;;;;21.27;10.55;;;;;;;11.57;74.83;94438.69;5043748;28;20021;-83
2022/10/09 06:58:42;;;;;;;24.10;11.07;;;;;;;11.59;75.10;94439.16;5042829;28;20037;-83
2022/10/09 07:01:10;;;;;;;25.90;11.75;;;;;;;11.68;74.73;94436.53;5042603;28;20125;-83
2022/10/09 07:03:38;;;;;;;25.52;14.18;;;;;;;11.75;74.39;94428.91;5041993;28;20033;-85
2022/10/09 07:06:10;;;;;;;22.73;10.32;;;;;;;11.83;73.85;94428.16;5043752;28;20323;-84
2022/10/09 07:08:36;;;;;;;;;;;;;;;11.92;73.22;94439.69;5043063;28;20033;-83
2022/10/09 07:11:09;;;;;;;14.90;9.30;;;;;;;11.91;72.17;94440.78;5042434;28;19980;-83
2022/10/09 07:13:36;;;;;;;23.15;10.13;;;;;;;11.98;72.03;94433.13;5041424;28;20097;-83
2022/10/09 07:16:01;;;;;;;18.90;9.77;;;;;;;12.09;71.95;94447.00;5042660;28;20116;-83
2022/10/09 07:18:27;;;;;;;22.17;10.57;;;;;;;12.13;72.08;94444.50;5042563;28;20021;-83
2022/10/09 07:20:52;;;;;;;21.45;10.88;;;;;;;12.20;72.25;94445.63;5041446;28;20047;-84
2022/10/09 07:23:18;;;;;;;13.48;9.13;;;;;;;12.32;72.16;94446.94;5025206;28;20028;-86
2022/10/09 07:25:43;;;;;;;19.02;9.32;;;;;;;12.43;71.35;94451.69;5042336;28;20100;-84
2022/10/09 07:28:09;;;;;;;20.10;9.77;;;;;;;12.48;70.04;94444.66;5024978;28;20029;-84
2022/10/09 07:30:37;;;;;;;20.35;10.90;;;;;;;12.57;69.96;94446.22;5042583;28;20037;-83
2022/10/09 07:33:02;;;;;;;24.10;12.57;;;;;;;12.64;70.19;94456.47;5042380;28;20056;-84
2022/10/09 07:35:28;;;;;;;30.05;11.25;;;;;;;12.69;70.27;94452.88;5042347;28;20017;-84
2022/10/09 07:37:54;;;;;;;21.73;12.27;;;;;;;12.76;70.03;94456.66;5042276;28;20311;-84
2022/10/09 07:40:19;;;;;;;24.42;11.95;;;;;;;12.83;69.93;94456.97;5042272;28;20017;-82
2022/10/09 07:42:44;;;;;;;26.15;13.90;;;;;;;12.89;70.42;94454.94;5042029;28;20020;-78
2022/10/09 07:45:10;;;;;;;22.50;14.02;;;;;;;12.94;69.86;94459.34;5024561;28;20215;-78
2022/10/09 07:47:35;;;;;;;21.02;12.40;;;;;;;13.00;69.48;94466.13;5041948;28;20092;-78
2022/10/09 07:50:01;;;;;;;21.92;12.23;;;;;;;13.10;69.81;94459.69;5041941;28;20047;-78
2022/10/09 07:52:26;;;;;;;24.55;13.30;;;;;;;13.18;69.45;94453.56;5041867;28;20094;-78
2022/10/09 07:54:52;;;;;;;27.58;12.93;;;;;;;13.31;68.63;94455.34;5041926;28;20017;-78
2022/10/09 07:57:17;;;;;;;22.13;13.18;;;;;;;13.46;68.32;94455.97;5041815;28;20033;-78
2022/10/09 07:59:43;;;;;;;26.15;13.38;;;;;;;13.58;67.94;94459.56;5041943;28;20087;-78
2022/10/09 08:02:09;;;;;;;27.85;13.65;;;;;;;13.72;67.54;94459.38;5042126;28;20086;-80
2022/10/09 08:04:36;;;;;;;27.63;11.98;;;;;;;13.89;67.00;94463.16;5041858;28;20316;-80
2022/10/09 08:07:01;;;;;;;24.63;11.60;;;;;;;14.04;66.18;94457.25;5041786;28;20316;-81
2022/10/09 08:09:27;;;;;;;18.85;10.88;;;;;;;14.25;65.80;94452.00;5041660;28;20021;-79
2022/10/09 08:11:52;;;;;;;23.55;11.07;;;;;;;14.47;64.93;94456.34;5041626;28;20017;-79
2022/10/09 08:14:17;;;;;;;19.58;10.35;;;;;;;14.71;65.09;94444.22;5041576;28;20021;-78
2022/10/09 08:16:43;;;;;;;26.30;10.00;;;;;;;14.94;63.87;94442.84;5041764;28;20087;-79
2022/10/09 08:19:08;;;;;;;17.85;8.82;;;;;;;15.11;62.89;94449.97;5041647;28;20017;-79
2022/10/09 08:21:34;;;;;;;16.15;8.52;;;;;;;15.30;63.32;94438.78;5042545;28;20021;-78
2022/10/09 08:23:59;;;;;;;22.50;8.70;;;;;;;15.51;63.12;94441.47;5045140;28;20029;-79
2022/10/09 08:26:27;;;;;;;11.65;6.28;;;;;;;15.70;61.43;94437.50;5045136;28;20029;-80
2022/10/09 08:28:56;;;;;;;13.55;4.50;;;;;;;15.73;59.61;94445.69;5045154;28;20029;-79
2022/10/09 08:31:22;;;;;;;12.27;3.92;;;;;;;15.72;59.95;94436.06;5045053;28;20386;-79
2022/10/09 08:33:52;;;;;;;5.63;3.78;;;;;;;15.86;58.12;94448.44;5027121;28;20068;-79
2022/10/09 08:36:18;;;;;;;7.28;3.97;;;;;;;15.94;58.63;94442.19;5045014;28;20029;-80
2022/10/09 08:38:43;;;;;;;9.02;4.10;;;;;;;15.97;57.90;94450.34;5044838;28;20053;-80
2022/10/09 08:41:31;;;;;;;6.90;3.85;;;;;;;16.01;58.06;94437.03;5045005;28;20025;-80
2022/10/09 08:44:10;;;;;;;12.90;4.57;;;;;;;15.99;58.60;94439.28;5044926;28;20013;-79
2022/10/09 08:47:02;;;;;;;14.55;3.97;;;;;;;16.08;57.44;94445.34;5044985;28;20022;-79
2022/10/09 08:50:00;;;;;;;7.32;4.15;;;;;;;16.16;58.60;94436.41;5000956;28;20056;-80
2022/10/09 08:52:50;;;;;;;8.02;4.05;;;;;;;16.29;58.60;94439.13;5044615;28;20041;-81
2022/10/09 08:55:38;;;;;;;9.02;4.18;;;;;;;16.49;57.48;94437.44;5044522;28;20148;-79
2022/10/09 08:58:13;;;;;;;14.60;4.57;;;;;;;16.55;57.06;94431.50;5044727;28;20083;-81
2022/10/09 09:00:48;;;;;;;11.75;4.43;;;;;;;16.69;56.98;94414.22;5044551;28;20027;-82
2022/10/09 09:03:37;;;;;;;9.00;4.13;;;;;;;16.83;55.19;94420.06;5044503;28;20100;-81
2022/10/09 09:06:26;;;;;;;14.10;4.18;;;;;;;16.82;55.88;94411.22;5044386;28;20053;-82
2022/10/09 09:08:59;;;;;;;7.95;4.47;;;;;;;16.94;55.67;94417.72;5024883;28;20033;-82
2022/10/09 09:11:43;;;;;;;15.20;4.65;;;;;;;17.07;54.75;94413.84;5043906;28;20029;-82
2022/10/09 09:14:33;;;;;;;8.20;4.03;;;;;;;17.08;54.54;94411.97;5044305;28;20041;-83
2022/10/09 09:17:11;;;;;;;8.93;4.28;;;;;;;17.22;54.80;94420.47;5044680;28;20053;-82
2022/10/09 09:20:00;;;;;;;5.95;4.00;;;;;;;17.31;54.63;94418.38;5044411;28;20025;-82
2022/10/09 09:22:26;;;;;;;9.75;4.10;;;;;;;17.23;55.15;94422.78;5044238;28;20017;-82
2022/10/09 09:24:53;;;;;;;8.82;4.65;;;;;;;17.34;55.16;94415.03;5044375;28;20247;-81
2022/10/09 09:27:31;;;;;;;16.00;4.90;;;;;;;17.36;54.60;94407.38;5044093;28;20025;-84
2022/10/09 09:30:12;;;;;;;11.02;4.50;;;;;;;17.52;54.11;94412.81;5044371;28;20290;-83
2022/10/09 09:32:52;;;;;;;8.55;4.10;;;;;;;17.54;54.16;94420.56;5043228;28;20034;-81
2022/10/09 09:35:45;;;;;;;10.73;4.28;;;;;;;17.55;54.38;94417.53;5044262;28;20029;-83
2022/10/09 09:38:12;;;;;;;8.95;4.10;;;;;;;17.61;52.76;94421.53;5001740;28;20033;-82
2022/10/09 09:40:38;;;;;;;8.65;4.03;;;;;;;17.68;53.45;94420.94;5044319;28;20088;-82
2022/10/09 09:43:16;;;;;;;10.48;3.75;;;;;;;17.78;53.80;94416.97;5043923;28;20029;-82
2022/10/09 09:45:43;;;;;;;6.93;3.55;;;;;;;17.84;52.41;94411.00;5044111;28;20101;-83
2022/10/09 09:48:39;;;;;;;7.40;3.30;;;;;;;17.87;53.37;94420.34;5044260;28;20045;-82
2022/10/09 09:51:11;;;;;;;7.68;3.70;;;;;;;18.00;52.35;94431.84;5034113;28;20033;-82
2022/10/09 09:53:42;;;;;;;;;;;;;;;17.95;52.51;94423.97;5044199;28;20013;-79
2022/10/09 09:56:09;;;;;;;7.82;3.40;;;;;;;17.93;52.54;94421.66;5043825;28;19908;-86
2022/10/09 09:58:39;;;;;;;7.93;3.53;;;;;;;18.00;52.81;94434.53;5043590;28;20333;-85
2022/10/09 10:01:05;;;;;;;9.30;2.90;;;;;;;18.04;51.83;94430.00;5043743;28;20049;-84
2022/10/09 10:03:33;;;;;;;7.25;3.20;;;;;;;18.08;51.07;94435.50;5043783;28;20017;-85
2022/10/09 10:05:59;;;;;;;11.43;3.00;;;;;;;18.03;51.29;94423.84;5043832;28;20021;-84
2022/10/09 10:08:32;;;;;;;9.00;3.35;;;;;;;18.12;50.32;94430.97;5043297;28;20087;-83
2022/10/09 10:11:00;;;;;;;7.80;3.15;;;;;;;18.15;51.87;94422.19;5043511;28;20021;-81
2022/10/09 10:13:46;;;;;;;5.93;3.13;;;;;;;18.17;51.22;94425.31;5043270;28;20025;-80
2022/10/09 10:16:28;;;;;;;11.50;3.15;;;;;;;18.20;51.83;94425.41;5043736;28;20091;-83
2022/10/09 10:18:56;;;;;;;5.20;3.30;;;;;;;18.29;50.28;94417.13;5043732;28;20048;-84
2022/10/09 10:21:22;;;;;;;4.75;3.10;;;;;;;18.37;49.67;94426.97;5043205;28;20044;-80
2022/10/09 10:23:59;;;;;;;14.25;4.28;;;;;;;18.41;50.10;94418.97;5043477;28;20017;-82
2022/10/09 10:26:30;;;;;;;6.30;2.92;;;;;;;18.40;50.00;94417.41;5043129;28;20078;-83
2022/10/09 10:29:02;;;;;;;13.82;3.10;;;;;;;18.45;50.03;94427.94;5042947;28;20103;-86
2022/10/09 10:31:34;;;;;;;;;;;;;;;18.44;50.29;94424.47;5043542;28;20394;-88
2022/10/09 10:34:03;;;;;;;9.48;3.10;;;;;;;18.41;50.78;94418.97;5043160;28;19955;-87
2022/10/09 10:36:31;;;;;;;6.88;2.55;;;;;;;18.52;50.05;94411.13;5044128;28;20131;-87
2022/10/09 10:39:11;;;;;;;11.18;3.30;;;;;;;18.70;48.74;94415.00;5043334;28;20331;-88
2022/10/09 10:41:44;;;;;;;6.20;2.65;;;;;;;18.81;47.71;94418.00;5043139;28;20029;-87
2022/10/09 10:44:29;;;;;;;7.43;3.10;;;;;;;18.71;47.76;94400.41;5043328;28;20028;-88
2022/10/09 10:47:02;;;;;;;12.23;3.15;;;;;;;18.77;47.92;94404.38;5043156;28;20100;-88
2022/10/09 10:49:29;;;;;;;7.55;2.78;;;;;;;18.81;47.90;94396.41;5044102;28;20075;-88
2022/10/09 10:52:06;;;;;;;13.20;3.30;;;;;;;18.90;47.95;94391.56;5043877;28;20048;-87
2022/10/09 10:54:46;;;;;;;9.23;3.38;;;;;;;19.02;47.69;94399.56;5043515;28;20037;-89
2022/10/09 10:57:46;;;;;;;4.38;2.58;;;;;;;19.15;44.19;94391.31;5043199;28;20033;-87
2022/10/09 11:00:12;;;;;;;4.63;2.35;;;;;;;19.14;45.89;94389.78;5043916;28;20219;-89
2022/10/09 11:02:59;;;;;;;11.25;3.17;;;;;;;19.21;44.75;94382.59;5043592;28;20038;-88
2022/10/09 11:05:46;;;;;;;12.27;3.00;;;;;;;19.39;45.59;94387.56;5043688;28;20021;-89
2022/10/09 11:08:30;;;;;;;8.80;3.30;;;;;;;19.44;44.92;94374.56;5044042;28;20029;-89
2022/10/09 11:11:00;;;;;;;10.05;2.97;;;;;;;19.47;43.79;94402.00;5042807;28;20319;-81
2022/10/09 11:14:07;;;;;;;4.85;2.38;;;;;;;19.52;42.15;94377.38;5042718;28;20254;-85
2022/10/09 11:17:28;;;;;;;11.00;2.60;;;;;;;19.49;42.55;94376.19;5015401;28;20049;-82
2022/10/09 11:20:01;;;;;;;7.93;2.63;;;;;;;19.51;42.66;94365.03;4984816;28;20116;-80
2022/10/09 11:23:08;;;;;;;10.68;3.20;;;;;;;19.52;43.26;94382.78;5042719;28;20345;-83
2022/10/09 11:25:57;;;;;;;7.07;2.85;;;;;;;19.58;42.76;94368.66;5034358;28;20041;-83
2022/10/09 11:28:50;;;;;;;9.18;2.38;;;;;;;19.71;40.46;94355.78;5042672;28;20017;-82
2022/10/09 11:31:21;;;;;;;4.95;2.60;;;;;;;19.78;40.89;94350.50;5042426;28;20068;-82
2022/10/09 11:33:52;;;;;;;6.95;2.80;;;;;;;19.95;40.51;94357.34;5042142;28;20021;-86
2022/10/09 11:36:32;;;;;;;6.80;2.43;;;;;;;19.99;41.84;94354.72;5042781;28;20354;-87
2022/10/09 11:39:02;;;;;;;8.00;3.20;;;;;;;20.05;41.74;94350.56;5042570;28;20217;-88
2022/10/09 11:41:29;;;;;;;5.63;3.42;;;;;;;20.12;42.02;94339.84;5043132;28;20028;-85
2022/10/09 11:44:32;;;;;;;3.88;2.60;;;;;;;20.28;43.69;94341.66;5042627;28;20025;-87